createdAt,value
2018-07-12T00:00:20.949Z,17.80
2018-07-12T00:02:48.337Z,17.80
2018-07-12T00:05:15.728Z,17.80
2018-07-12T00:07:43.111Z,17.80
2018-07-12T00:10:10.492Z,17.70
2018-07-12T00:12:37.891Z,17.70
2018-07-12T00:15:05.384Z,17.60
2018-07-12T00:17:32.761Z,17.60
2018-07-12T00:20:00.160Z,17.60
2018-07-12T00:22:27.557Z,17.50
2018-07-12T00:24:54.955Z,17.50
2018-07-12T00:27:22.353Z,17.40
2018-07-12T00:29:49.714Z,17.60
2018-07-12T00:32:17.071Z,17.50
2018-07-12T00:34:44.527Z,17.60
2018-07-12T00:37:11.900Z,17.60
2018-07-12T00:39:39.289Z,17.60
2018-07-12T00:42:06.698Z,17.70
2018-07-12T00:44:34.082Z,17.60
2018-07-12T00:47:02.645Z,17.60
2018-07-12T00:49:30.061Z,17.60
2018-07-12T00:51:57.431Z,17.60
2018-07-12T00:56:52.483Z,17.60
2018-07-12T00:59:19.898Z,17.60
2018-07-12T01:01:47.350Z,17.50
2018-07-12T01:04:14.804Z,17.50
2018-07-12T01:06:42.590Z,17.60
2018-07-12T01:09:09.971Z,17.50
2018-07-12T01:11:37.875Z,17.60
2018-07-12T01:14:05.269Z,17.60
2018-07-12T01:16:32.661Z,17.60
2018-07-12T01:19:00.162Z,17.60
2018-07-12T01:21:27.530Z,17.60
2018-07-12T01:23:54.919Z,17.60
2018-07-12T01:26:22.322Z,17.60
2018-07-12T01:28:49.725Z,17.60
2018-07-12T01:31:17.126Z,17.60
2018-07-12T01:33:44.503Z,17.50
2018-07-12T01:36:11.908Z,17.50
2018-07-12T01:38:39.295Z,17.60
2018-07-12T01:41:06.814Z,17.60
2018-07-12T01:43:34.238Z,17.60
2018-07-12T01:46:01.610Z,17.60
2018-07-12T01:48:29.000Z,17.50
2018-07-12T01:50:56.391Z,17.60
2018-07-12T01:53:23.887Z,17.60
2018-07-12T01:55:51.280Z,17.60
2018-07-12T01:58:18.706Z,17.70
2018-07-12T02:00:46.511Z,17.60
2018-07-12T02:03:13.964Z,17.60
2018-07-12T02:05:41.432Z,17.60
2018-07-12T02:08:08.803Z,17.60
2018-07-12T02:10:36.240Z,17.50
2018-07-12T02:13:03.621Z,17.70
2018-07-12T02:15:31.047Z,17.70
2018-07-12T02:17:58.461Z,17.70
2018-07-12T02:20:25.951Z,17.70
2018-07-12T02:22:53.739Z,17.70
2018-07-12T02:25:21.175Z,17.60
2018-07-12T02:27:48.557Z,17.50
2018-07-12T02:30:15.951Z,17.50
2018-07-12T02:32:43.341Z,17.40
2018-07-12T02:35:10.817Z,17.40
2018-07-12T02:37:38.664Z,17.30
2018-07-12T02:40:06.071Z,17.20
2018-07-12T02:42:33.427Z,17.10
2018-07-12T02:45:00.806Z,16.90
2018-07-12T02:47:28.518Z,16.70
2018-07-12T02:49:55.880Z,16.60
2018-07-12T02:52:23.260Z,16.50
2018-07-12T02:54:50.668Z,16.30
2018-07-12T02:57:18.038Z,16.30
2018-07-12T02:59:45.415Z,16.20
2018-07-12T03:02:12.829Z,16.10
2018-07-12T03:04:40.217Z,16.10
2018-07-12T03:07:07.602Z,16.10
2018-07-12T03:09:35.021Z,16.20
2018-07-12T03:12:02.416Z,16.30
2018-07-12T03:14:29.770Z,16.40
2018-07-12T03:16:57.424Z,16.40
2018-07-12T03:19:24.921Z,16.40
2018-07-12T03:21:52.287Z,16.50
2018-07-12T03:24:19.704Z,16.60
2018-07-12T03:29:14.718Z,16.60
2018-07-12T03:31:42.151Z,16.60
2018-07-12T03:34:09.525Z,16.70
2018-07-12T03:36:36.907Z,16.60
2018-07-12T03:39:04.857Z,16.60
2018-07-12T03:41:32.220Z,16.60
2018-07-12T03:43:59.590Z,16.50
2018-07-12T03:49:19.169Z,16.60
2018-07-12T03:51:46.781Z,16.50
2018-07-12T03:54:14.149Z,16.40
2018-07-12T03:56:42.444Z,16.20
2018-07-12T03:59:09.855Z,16.00
2018-07-12T04:01:37.428Z,15.80
2018-07-12T04:04:04.826Z,15.70
2018-07-12T04:06:32.201Z,15.70
2018-07-12T04:08:59.579Z,15.70
2018-07-12T04:11:26.980Z,15.60
2018-07-12T04:13:54.341Z,15.60
2018-07-12T04:16:21.715Z,15.70
2018-07-12T04:18:49.111Z,15.70
2018-07-12T04:21:16.475Z,15.70
2018-07-12T04:23:43.865Z,15.70
2018-07-12T04:26:11.248Z,15.90
2018-07-12T04:28:38.623Z,16.00
2018-07-12T04:31:06.000Z,16.10
2018-07-12T04:33:33.498Z,16.20
2018-07-12T04:36:00.875Z,16.40
2018-07-12T04:38:28.373Z,16.50
2018-07-12T04:40:55.825Z,16.50
2018-07-12T04:43:23.310Z,16.60
2018-07-12T04:45:50.688Z,16.70
2018-07-12T04:48:18.073Z,16.70
2018-07-12T04:50:45.439Z,16.70
2018-07-12T04:53:12.815Z,16.80
2018-07-12T04:55:40.197Z,16.80
2018-07-12T04:58:07.955Z,16.90
2018-07-12T07:50:17.497Z,20.40
2018-07-12T07:52:46.042Z,20.10
2018-07-12T07:55:14.651Z,20.00
2018-07-12T07:57:43.370Z,20.50
2018-07-12T08:00:11.884Z,20.80
2018-07-12T08:02:40.437Z,21.60
2018-07-12T08:05:09.008Z,22.30
2018-07-12T08:07:37.536Z,22.40
2018-07-12T08:10:06.124Z,21.40
2018-07-12T08:12:34.691Z,21.30
2018-07-12T08:15:03.542Z,21.30
2018-07-12T08:17:32.768Z,22.00
2018-07-12T08:20:01.278Z,22.00
2018-07-12T08:22:29.821Z,22.90
2018-07-12T08:24:58.384Z,23.20
2018-07-12T08:27:26.925Z,24.10
2018-07-12T08:29:55.587Z,24.70
2018-07-12T08:32:24.104Z,23.50
2018-07-12T08:34:52.674Z,24.30
2018-07-12T08:37:21.291Z,25.40
2018-07-12T08:39:49.904Z,26.10
2018-07-12T08:42:18.476Z,25.80
2018-07-12T08:44:47.590Z,26.40
2018-07-12T08:47:16.122Z,26.20
2018-07-12T08:49:45.059Z,26.40
2018-07-12T08:52:13.601Z,26.40
2018-07-12T08:54:42.275Z,26.70
2018-07-12T08:57:10.812Z,26.30
2018-07-12T08:59:39.372Z,26.50
2018-07-12T09:02:08.014Z,27.50
2018-07-12T09:04:36.555Z,27.40
2018-07-12T09:07:05.179Z,27.40
2018-07-12T09:09:33.698Z,27.20
2018-07-12T09:12:02.294Z,27.10
2018-07-12T09:14:30.875Z,27.40
2018-07-12T09:16:59.560Z,27.40
2018-07-12T09:19:28.143Z,28.70
2018-07-12T09:21:57.829Z,29.10
2018-07-12T09:24:27.285Z,28.70
2018-07-12T09:26:56.916Z,29.70
2018-07-12T09:29:25.469Z,29.40
2018-07-12T09:31:54.096Z,30.10
2018-07-12T09:34:22.622Z,29.70
2018-07-12T09:36:51.310Z,29.60
2018-07-12T09:39:19.844Z,28.50
2018-07-12T09:41:48.399Z,28.80
2018-07-12T09:44:16.969Z,29.20
2018-07-12T09:46:45.515Z,29.90
2018-07-12T09:49:15.131Z,29.40
2018-07-12T09:51:43.532Z,29.50
2018-07-12T09:54:12.050Z,28.70
2018-07-12T09:56:51.938Z,29.00
2018-07-12T09:59:20.477Z,28.10
2018-07-12T10:01:54.476Z,28.80
2018-07-12T10:04:26.527Z,30.20
2018-07-12T10:07:00.856Z,29.60
2018-07-12T10:09:34.756Z,30.80
2018-07-12T10:12:08.575Z,30.80
2018-07-12T10:14:42.523Z,31.50
2018-07-12T10:17:12.073Z,30.40
2018-07-12T10:19:42.099Z,30.00
2018-07-12T10:22:11.393Z,31.00
2018-07-12T10:24:39.982Z,30.90
2018-07-12T10:27:08.536Z,30.80
2018-07-12T10:29:37.151Z,31.80
2018-07-12T10:32:06.100Z,31.40
2018-07-12T10:34:34.680Z,32.20
2018-07-12T10:37:03.229Z,31.90
2018-07-12T10:39:31.766Z,32.80
2018-07-12T10:42:00.482Z,32.50
2018-07-12T10:44:29.013Z,32.70
2018-07-12T10:46:58.080Z,33.90
2018-07-12T10:49:26.743Z,33.60
2018-07-12T10:51:55.247Z,34.00
2018-07-12T10:54:23.755Z,33.80
2018-07-12T10:56:52.333Z,31.60
2018-07-12T10:59:20.866Z,32.80
2018-07-12T11:01:49.428Z,34.60
2018-07-12T11:06:46.211Z,31.80
2018-07-12T11:09:14.807Z,29.50
2018-07-12T11:11:43.393Z,30.90
2018-07-12T11:14:11.902Z,32.60
2018-07-12T11:16:40.423Z,33.00
2018-07-12T11:19:09.043Z,32.50
2018-07-12T11:21:37.577Z,31.40
2018-07-12T11:24:07.008Z,29.90
2018-07-12T11:26:36.496Z,28.80
2018-07-12T11:29:05.025Z,30.20
2018-07-12T11:31:33.575Z,32.80
2018-07-12T11:34:03.003Z,33.20
2018-07-12T11:36:31.515Z,33.90
2018-07-12T11:39:00.601Z,33.70
2018-07-12T11:41:29.508Z,32.60
2018-07-12T11:43:58.022Z,32.90
2018-07-12T11:46:26.566Z,34.40
2018-07-12T11:48:55.087Z,34.60
2018-07-12T11:53:51.913Z,32.90
2018-07-12T11:56:20.451Z,33.00
2018-07-12T11:58:49.857Z,34.00
2018-07-12T12:01:18.569Z,34.70
2018-07-12T12:03:47.174Z,34.70
2018-07-12T12:06:15.679Z,35.00
2018-07-12T12:08:44.341Z,36.00
2018-07-12T12:11:12.880Z,33.60
2018-07-12T12:13:41.452Z,32.60
2018-07-12T12:16:10.006Z,34.00
2018-07-12T12:18:38.530Z,34.90
2018-07-12T12:21:07.052Z,32.70
2018-07-12T12:23:35.608Z,33.00
2018-07-12T12:26:04.115Z,34.70
2018-07-12T12:28:32.660Z,34.70
2018-07-12T12:31:01.212Z,34.40
2018-07-12T12:33:30.463Z,34.50
2018-07-12T12:35:59.028Z,35.50
2018-07-12T12:38:27.639Z,34.90
2018-07-12T12:40:56.160Z,32.50
2018-07-12T12:43:24.733Z,31.40
2018-07-12T12:45:53.345Z,30.50
2018-07-12T12:48:21.864Z,31.60
2018-07-12T12:50:50.391Z,33.10
2018-07-12T12:53:18.938Z,34.10
2018-07-12T12:55:47.455Z,34.30
2018-07-12T12:58:16.726Z,34.80
2018-07-12T13:00:45.338Z,33.60
2018-07-12T13:03:13.975Z,33.20
2018-07-12T13:05:42.484Z,33.90
2018-07-12T13:08:11.068Z,35.30
2018-07-12T13:10:39.659Z,34.60
2018-07-12T13:13:08.287Z,35.20
2018-07-12T13:15:36.948Z,35.20
2018-07-12T13:18:05.779Z,36.20
2018-07-12T13:20:34.392Z,36.60
2018-07-12T13:23:02.938Z,35.60
2018-07-12T13:25:31.491Z,35.20
2018-07-12T13:28:00.068Z,34.90
2018-07-12T13:30:28.665Z,35.20
2018-07-12T13:32:57.306Z,35.30
2018-07-12T13:35:25.997Z,35.70
2018-07-12T13:37:54.551Z,35.80
2018-07-12T13:40:23.082Z,36.10
2018-07-12T13:42:51.582Z,35.30
2018-07-12T13:45:20.098Z,35.90
2018-07-12T13:47:48.697Z,36.20
2018-07-12T13:50:17.293Z,36.70
2018-07-12T13:52:45.804Z,35.10
2018-07-12T13:55:14.388Z,33.00
2018-07-12T13:57:42.926Z,31.90
2018-07-12T14:00:12.358Z,30.30
2018-07-12T14:02:40.931Z,29.70
2018-07-12T14:05:09.511Z,29.00
2018-07-12T14:07:38.321Z,28.90
2018-07-12T14:10:06.993Z,28.50
2018-07-12T14:12:35.499Z,28.20
2018-07-12T14:15:04.205Z,27.90
2018-07-12T14:17:32.764Z,27.90
2018-07-12T14:20:01.263Z,27.60
2018-07-12T14:22:29.819Z,27.50
2018-07-12T14:24:58.437Z,27.50
2018-07-12T14:27:27.077Z,27.40
2018-07-12T14:29:55.689Z,27.40
2018-07-12T14:32:24.277Z,27.60
2018-07-12T14:34:52.894Z,27.70
2018-07-12T14:37:21.887Z,27.70
2018-07-12T14:39:50.523Z,27.50
2018-07-12T14:42:19.203Z,27.50
2018-07-12T14:44:47.893Z,27.40
2018-07-12T14:47:16.450Z,27.50
2018-07-12T14:49:45.074Z,27.30
2018-07-12T14:52:13.645Z,27.40
2018-07-12T14:54:42.217Z,27.60
2018-07-12T14:57:10.729Z,27.40
2018-07-12T14:59:39.735Z,27.60
2018-07-12T15:02:08.353Z,27.60
2018-07-12T15:04:36.874Z,27.40
2018-07-12T15:07:05.514Z,27.10
2018-07-12T15:09:34.034Z,27.50
2018-07-12T15:12:02.554Z,27.90
2018-07-12T15:14:31.099Z,27.90
2018-07-12T15:16:59.660Z,27.90
2018-07-12T15:19:28.269Z,27.80
2018-07-12T15:21:56.799Z,28.00
2018-07-12T15:24:25.855Z,28.10
2018-07-12T15:26:54.525Z,28.00
2018-07-12T15:29:23.237Z,28.00
2018-07-12T15:31:51.707Z,28.40
2018-07-12T15:34:20.222Z,29.30
2018-07-12T15:36:48.824Z,29.40
2018-07-12T15:39:17.378Z,30.70
2018-07-12T15:41:45.974Z,30.10
2018-07-12T15:44:14.501Z,29.00
2018-07-12T15:46:43.013Z,28.30
2018-07-12T15:49:11.540Z,27.70
2018-07-12T15:51:40.070Z,27.50
2018-07-12T15:54:08.612Z,27.40
2018-07-12T15:56:37.198Z,27.20
2018-07-12T15:59:05.763Z,27.20
2018-07-12T16:01:34.338Z,27.10
2018-07-12T16:04:02.853Z,27.10
2018-07-12T16:06:31.410Z,27.00
2018-07-12T16:08:59.990Z,27.20
2018-07-12T16:11:28.509Z,27.20
2018-07-12T16:13:57.052Z,27.40
2018-07-12T16:16:25.598Z,27.50
2018-07-12T16:18:54.115Z,27.40
2018-07-12T16:21:22.679Z,27.30
2018-07-12T16:23:51.212Z,27.10
2018-07-12T16:26:19.750Z,27.10
2018-07-12T16:28:51.375Z,26.90
2018-07-12T16:31:19.984Z,26.90
2018-07-12T16:33:48.494Z,26.90
2018-07-12T16:36:17.063Z,26.90
2018-07-12T16:38:45.670Z,27.30
2018-07-12T16:41:14.185Z,27.20
2018-07-12T16:43:42.757Z,27.20
2018-07-12T16:46:11.412Z,27.00
2018-07-12T16:48:40.034Z,27.10
2018-07-12T16:51:08.522Z,27.20
2018-07-12T16:53:37.261Z,27.50
2018-07-12T16:56:05.930Z,27.50
2018-07-12T16:58:34.488Z,27.60
2018-07-12T17:01:03.018Z,27.80
2018-07-12T17:03:33.059Z,28.20
2018-07-12T17:06:01.566Z,29.10
2018-07-12T17:08:30.186Z,28.80
2018-07-12T17:10:58.735Z,29.10
2018-07-12T17:13:27.982Z,29.00
2018-07-12T17:15:56.522Z,28.80
2018-07-12T17:18:25.019Z,28.60
2018-07-12T17:20:53.637Z,28.50
2018-07-12T17:23:22.136Z,28.00
2018-07-12T17:25:50.662Z,27.60
2018-07-12T17:28:19.181Z,27.50
2018-07-12T17:30:47.766Z,27.20
2018-07-12T17:33:17.856Z,27.00
2018-07-12T17:35:46.523Z,27.10
2018-07-12T17:38:15.057Z,26.90
2018-07-12T17:40:43.646Z,27.20
2018-07-12T17:43:12.189Z,27.40
2018-07-12T17:45:40.694Z,27.30
2018-07-12T17:48:09.926Z,26.90
2018-07-12T17:50:38.476Z,26.70
2018-07-12T17:53:07.801Z,26.60
2018-07-12T17:55:36.309Z,26.70
2018-07-12T17:58:04.943Z,26.40
2018-07-12T18:00:33.461Z,26.10
2018-07-12T18:03:02.053Z,26.00
2018-07-12T18:05:31.662Z,25.90
2018-07-12T18:08:00.164Z,25.90
2018-07-12T18:10:28.674Z,25.70
2018-07-12T18:12:57.215Z,25.70
2018-07-12T18:15:25.752Z,25.50
2018-07-12T18:17:54.278Z,25.50
2018-07-12T18:20:22.818Z,25.40
2018-07-12T18:22:51.557Z,25.10
2018-07-12T18:25:20.082Z,25.10
2018-07-12T18:27:48.620Z,25.00
2018-07-12T18:30:17.197Z,24.90
2018-07-12T18:39:32.295Z,24.80
2018-07-12T18:42:00.845Z,24.50
2018-07-12T18:44:29.375Z,24.40
2018-07-12T18:46:58.241Z,24.40
2018-07-12T18:49:27.754Z,24.40
2018-07-12T18:51:56.274Z,24.20
2018-07-12T18:54:24.815Z,24.10
2018-07-12T18:56:54.395Z,24.00
2018-07-12T18:59:22.987Z,24.10
2018-07-12T19:01:51.600Z,24.10
2018-07-12T19:04:20.163Z,24.00
2018-07-12T19:06:49.066Z,23.90
2018-07-12T19:09:17.635Z,23.80
2018-07-12T19:11:46.249Z,23.80
2018-07-12T19:14:14.757Z,23.70
2018-07-12T19:16:43.373Z,23.50
2018-07-12T19:19:11.976Z,23.50
2018-07-12T19:21:40.499Z,23.40
2018-07-12T19:24:09.071Z,23.40
2018-07-12T19:26:37.602Z,23.30
2018-07-12T19:31:34.381Z,23.00
2018-07-12T19:34:02.950Z,22.90
2018-07-12T19:36:31.566Z,22.80
2018-07-12T19:39:00.216Z,22.80
2018-07-12T19:41:28.849Z,22.70
2018-07-12T19:43:57.663Z,22.60
2018-07-12T19:46:27.690Z,22.60
2018-07-12T19:48:56.247Z,22.60
2018-07-12T19:51:24.895Z,22.50
2018-07-12T19:53:53.830Z,22.40
2018-07-12T19:56:22.386Z,22.30
2018-07-12T19:58:51.028Z,22.10
2018-07-12T20:01:19.654Z,21.80
2018-07-12T20:03:48.219Z,21.60
2018-07-12T20:06:16.789Z,21.60
2018-07-12T20:08:45.339Z,21.60
2018-07-12T20:11:13.861Z,21.60
2018-07-12T20:13:42.509Z,21.60
2018-07-12T20:16:11.036Z,21.50
2018-07-12T20:18:39.746Z,21.70
2018-07-12T20:21:08.498Z,21.40
2018-07-12T20:23:37.048Z,21.40
2018-07-12T20:26:05.910Z,21.20
2018-07-12T20:28:34.450Z,21.20
2018-07-12T20:31:03.331Z,21.20
2018-07-12T20:33:31.904Z,21.10
2018-07-12T20:36:00.447Z,21.20
2018-07-12T20:38:29.037Z,21.20
2018-07-12T20:40:57.793Z,21.20
2018-07-12T20:43:28.146Z,21.10
2018-07-12T20:45:57.169Z,21.00
2018-07-12T20:48:29.821Z,20.80
2018-07-12T20:50:58.366Z,20.60
2018-07-12T20:53:26.912Z,20.40
2018-07-12T20:55:55.431Z,20.30
2018-07-12T20:58:23.989Z,20.20
2018-07-12T21:00:52.565Z,20.20
2018-07-12T21:03:21.082Z,20.30
2018-07-12T21:05:49.628Z,20.20
2018-07-12T21:08:18.237Z,20.10
2018-07-12T21:10:46.760Z,20.10
2018-07-12T21:13:15.376Z,20.00
2018-07-12T21:15:43.893Z,20.00
2018-07-12T21:18:12.405Z,20.10
2018-07-12T21:20:40.943Z,20.10
2018-07-12T21:23:11.025Z,20.00
2018-07-12T21:25:39.773Z,19.80
2018-07-12T21:28:08.378Z,19.70
2018-07-12T21:30:36.907Z,19.70
2018-07-12T21:33:05.465Z,19.80
2018-07-12T21:35:34.057Z,19.70
2018-07-12T21:38:04.100Z,19.60
2018-07-12T21:40:32.626Z,19.50
2018-07-12T21:43:01.180Z,19.30
2018-07-12T21:45:29.829Z,19.20
2018-07-12T21:47:58.396Z,19.30
2018-07-12T21:50:27.823Z,19.30
2018-07-12T21:52:56.372Z,19.30
2018-07-12T21:55:24.915Z,19.10
2018-07-12T21:57:53.496Z,19.10
2018-07-12T22:00:22.064Z,18.90
2018-07-12T22:02:50.654Z,18.80
2018-07-12T22:05:20.190Z,18.70
2018-07-12T22:08:00.504Z,18.70
2018-07-12T22:10:29.082Z,18.70
2018-07-12T22:12:57.651Z,18.60
2018-07-12T22:15:26.239Z,18.50
2018-07-12T22:17:54.818Z,18.40
2018-07-12T22:20:23.362Z,18.40
2018-07-12T22:22:51.876Z,18.40
2018-07-12T22:25:20.487Z,18.40
2018-07-12T22:27:49.565Z,18.40
2018-07-12T22:30:18.092Z,18.40
2018-07-12T22:32:46.682Z,18.30
2018-07-12T22:35:15.309Z,18.20
2018-07-12T22:37:43.881Z,18.20
2018-07-12T22:40:12.457Z,18.10
2018-07-12T22:42:42.258Z,18.20
2018-07-12T22:45:10.883Z,18.10
2018-07-12T22:47:39.490Z,17.90
2018-07-12T22:50:08.062Z,17.80
2018-07-12T22:52:37.291Z,17.70
2018-07-12T22:55:05.879Z,17.80
2018-07-12T22:57:34.644Z,17.80
2018-07-12T23:00:03.273Z,17.80
2018-07-12T23:02:31.987Z,17.70
2018-07-12T23:05:00.616Z,17.40
2018-07-12T23:07:30.413Z,17.40
2018-07-12T23:10:00.291Z,17.30
2018-07-12T23:12:29.040Z,17.30
2018-07-12T23:14:57.559Z,17.30
2018-07-12T23:17:26.089Z,17.10
2018-07-12T23:19:54.632Z,17.00
2018-07-12T23:24:51.497Z,17.10
2018-07-12T23:27:20.577Z,17.20
2018-07-12T23:29:49.085Z,17.10
2018-07-12T23:32:17.664Z,16.90
2018-07-12T23:34:46.178Z,16.90
2018-07-12T23:37:14.792Z,16.80
2018-07-12T23:39:44.133Z,16.70
2018-07-12T23:42:12.651Z,16.70
2018-07-12T23:44:42.030Z,16.70
2018-07-12T23:47:10.570Z,16.70
2018-07-12T23:49:39.152Z,16.60
2018-07-12T23:52:07.710Z,16.50
2018-07-12T23:54:36.889Z,16.40
2018-07-12T23:57:05.446Z,16.20
2018-07-12T23:59:35.181Z,16.10
